createdAt,value
2022-12-08T00:02:03.486Z,4.70
2022-12-08T00:04:52.349Z,4.22
2022-12-08T00:07:38.220Z,5.13
2022-12-08T00:10:39.538Z,4.95
2022-12-08T00:12:56.873Z,5.07
2022-12-08T00:15:26.451Z,4.82
2022-12-08T00:17:54.739Z,4.85
2022-12-08T00:20:22.966Z,5.03
2022-12-08T00:22:51.587Z,5.30
2022-12-08T00:25:19.845Z,5.40
2022-12-08T00:27:48.110Z,5.63
2022-12-08T00:30:16.912Z,5.70
2022-12-08T00:32:46.456Z,5.70
2022-12-08T00:35:14.827Z,5.38
2022-12-08T00:37:43.188Z,5.80
2022-12-08T00:40:12.182Z,5.55
2022-12-08T00:42:40.423Z,5.95
2022-12-08T00:45:09.597Z,5.70
2022-12-08T00:47:37.828Z,5.43
2022-12-08T00:50:09.447Z,6.70
2022-12-08T00:52:37.864Z,6.28
2022-12-08T00:55:07.451Z,6.35
2022-12-08T00:57:35.686Z,7.07
2022-12-08T01:00:04.849Z,6.43
2022-12-08T01:02:34.385Z,6.25
2022-12-08T01:05:05.678Z,7.00
2022-12-08T01:07:35.487Z,6.70
2022-12-08T01:10:04.232Z,6.55
2022-12-08T01:12:32.587Z,7.05
2022-12-08T01:15:02.676Z,6.90
2022-12-08T01:17:31.163Z,7.03
2022-12-08T01:19:59.573Z,5.97
2022-12-08T01:22:27.785Z,7.25
2022-12-08T01:24:57.379Z,6.40
2022-12-08T01:27:25.638Z,5.80
2022-12-08T01:29:53.851Z,7.35
2022-12-08T01:32:22.058Z,6.70
2022-12-08T01:34:50.350Z,6.70
2022-12-08T01:37:18.467Z,6.50
2022-12-08T01:39:46.673Z,7.38
2022-12-08T01:42:23.501Z,6.22
2022-12-08T01:45:01.063Z,6.75
2022-12-08T01:47:37.499Z,6.68
2022-12-08T01:50:10.468Z,6.32
2022-12-08T01:52:42.940Z,7.15
2022-12-08T01:55:17.756Z,6.72
2022-12-08T01:57:50.971Z,6.20
2022-12-08T02:00:22.892Z,6.40
2022-12-08T02:02:57.655Z,6.93
2022-12-08T02:05:29.606Z,6.50
2022-12-08T02:07:59.989Z,6.80
2022-12-08T02:10:32.038Z,5.60
2022-12-08T02:13:03.322Z,6.88
2022-12-08T02:15:39.909Z,6.95
2022-12-08T02:18:30.345Z,6.13
2022-12-08T02:21:05.331Z,6.68
2022-12-08T02:23:44.453Z,6.75
2022-12-08T02:26:56.021Z,6.53
2022-12-08T02:30:12.967Z,6.93
2022-12-08T02:33:28.207Z,6.22
2022-12-08T02:36:04.635Z,5.50
2022-12-08T02:38:53.248Z,6.47
2022-12-08T02:41:33.457Z,6.65
2022-12-08T02:44:12.032Z,5.53
2022-12-08T02:46:48.007Z,5.75
2022-12-08T02:49:16.740Z,6.07
2022-12-08T02:51:46.415Z,5.93
2022-12-08T02:54:15.878Z,5.68
2022-12-08T02:57:14.934Z,5.72
2022-12-08T03:00:07.356Z,6.28
2022-12-08T03:02:53.448Z,5.90
2022-12-08T03:05:35.943Z,5.68
2022-12-08T03:08:14.931Z,5.07
2022-12-08T03:10:49.455Z,5.25
2022-12-08T03:13:22.932Z,5.88
2022-12-08T03:15:53.401Z,4.95
2022-12-08T03:18:28.230Z,6.28
2022-12-08T03:20:57.384Z,5.95
2022-12-08T03:23:28.283Z,5.45
2022-12-08T03:26:03.187Z,5.50
2022-12-08T03:28:31.822Z,6.00
2022-12-08T03:31:07.531Z,5.30
2022-12-08T03:33:41.071Z,5.53
2022-12-08T03:36:13.031Z,5.93
2022-12-08T03:38:45.526Z,5.65
2022-12-08T03:41:19.998Z,5.95
2022-12-08T03:43:49.635Z,5.10
2022-12-08T03:46:19.089Z,5.35
2022-12-08T03:48:47.743Z,4.72
2022-12-08T03:51:16.718Z,5.65
2022-12-08T03:53:47.449Z,4.38
2022-12-08T03:56:27.467Z,4.57
2022-12-08T03:58:56.702Z,5.00
2022-12-08T04:01:25.395Z,4.85
2022-12-08T04:03:54.229Z,4.50
2022-12-08T04:06:23.853Z,4.90
2022-12-08T04:08:53.732Z,4.63
2022-12-08T04:11:22.003Z,5.28
2022-12-08T04:13:50.531Z,4.80
2022-12-08T04:16:22.807Z,4.82
2022-12-08T04:18:51.633Z,4.93
2022-12-08T04:21:20.111Z,4.68
2022-12-08T04:23:48.631Z,4.78
2022-12-08T04:26:18.600Z,5.82
2022-12-08T04:28:46.897Z,4.78
2022-12-08T04:31:15.285Z,4.78
2022-12-08T04:33:45.889Z,5.05
2022-12-08T04:36:14.211Z,5.35
2022-12-08T04:38:42.459Z,5.22
2022-12-08T04:41:10.707Z,4.68
2022-12-08T04:43:41.195Z,4.78
2022-12-08T04:46:11.368Z,5.22
2022-12-08T04:48:40.901Z,4.20
2022-12-08T04:51:15.511Z,4.85
2022-12-08T04:53:46.758Z,5.30
2022-12-08T04:56:15.692Z,5.72
2022-12-08T04:58:45.907Z,5.25
2022-12-08T05:01:14.662Z,6.30
2022-12-08T05:03:42.974Z,6.40
2022-12-08T05:06:14.388Z,6.15
2022-12-08T05:08:43.183Z,7.03
2022-12-08T05:11:13.679Z,6.57
2022-12-08T05:13:42.252Z,6.30
2022-12-08T05:16:14.888Z,6.30
2022-12-08T05:18:44.127Z,6.50
2022-12-08T05:21:12.780Z,6.65
2022-12-08T05:23:41.058Z,6.60
2022-12-08T05:26:09.487Z,6.32
2022-12-08T05:28:42.421Z,6.93
2022-12-08T05:31:13.918Z,6.25
2022-12-08T05:33:42.536Z,6.13
2022-12-08T05:36:12.232Z,6.43
2022-12-08T05:38:41.222Z,6.07
2022-12-08T05:41:10.464Z,6.28
2022-12-08T05:43:38.734Z,6.10
2022-12-08T05:46:08.918Z,6.15
2022-12-08T05:48:39.252Z,5.67
2022-12-08T05:51:18.095Z,4.20
2022-12-08T05:53:46.590Z,5.88
2022-12-08T05:56:14.997Z,5.60
2022-12-08T05:58:43.239Z,5.40
2022-12-08T06:01:22.118Z,5.03
2022-12-08T06:03:52.252Z,6.72
2022-12-08T06:06:20.865Z,5.80
2022-12-08T06:08:49.148Z,5.35
2022-12-08T06:11:21.901Z,6.20
2022-12-08T06:13:50.328Z,5.15
2022-12-08T06:16:19.779Z,5.43
2022-12-08T06:18:48.547Z,5.47
2022-12-08T06:21:18.619Z,5.43
2022-12-08T06:23:49.781Z,4.60
2022-12-08T06:26:19.292Z,5.55
2022-12-08T06:28:47.646Z,5.40
2022-12-08T06:31:19.495Z,4.88
2022-12-08T06:33:48.612Z,4.82
2022-12-08T06:36:22.004Z,5.43
2022-12-08T06:38:50.851Z,5.32
2022-12-08T06:41:19.131Z,5.25
2022-12-08T06:43:47.661Z,5.28
2022-12-08T06:46:19.651Z,4.82
2022-12-08T06:48:50.446Z,5.70
2022-12-08T06:51:23.450Z,6.10
2022-12-08T06:53:51.884Z,4.90
2022-12-08T06:56:20.562Z,5.72
2022-12-08T06:58:52.373Z,6.03
2022-12-08T07:01:21.391Z,4.55
2022-12-08T07:03:50.261Z,5.05
2022-12-08T07:06:23.867Z,4.55
2022-12-08T07:08:52.450Z,4.32
2022-12-08T07:11:22.434Z,4.40
2022-12-08T07:13:51.693Z,3.93
2022-12-08T07:16:20.173Z,4.18
2022-12-08T07:18:48.474Z,4.43
2022-12-08T07:21:19.073Z,4.95
2022-12-08T07:23:54.225Z,5.45
2022-12-08T07:26:24.125Z,5.03
2022-12-08T07:28:52.543Z,5.55
2022-12-08T07:31:23.530Z,5.30
2022-12-08T07:36:22.174Z,5.70
2022-12-08T07:38:53.169Z,5.80
2022-12-08T07:43:53.604Z,6.07
2022-12-08T07:46:25.222Z,6.40
2022-12-08T07:48:54.023Z,6.32
2022-12-08T07:51:24.937Z,6.05
2022-12-08T07:53:55.122Z,7.80
2022-12-08T07:56:24.405Z,6.85
2022-12-08T07:58:52.868Z,7.90
2022-12-08T08:01:27.279Z,6.85
2022-12-08T08:03:57.734Z,9.45
2022-12-08T08:06:27.568Z,7.35
2022-12-08T08:08:56.218Z,7.57
2022-12-08T08:11:25.054Z,6.60
2022-12-08T08:13:54.111Z,6.50
2022-12-08T08:16:22.736Z,6.28
2022-12-08T08:18:52.190Z,6.38
2022-12-08T08:21:44.438Z,6.43
2022-12-08T08:24:11.904Z,6.25
2022-12-08T08:26:40.996Z,6.20
2022-12-08T08:29:09.478Z,6.57
2022-12-08T08:31:37.768Z,6.13
2022-12-08T08:34:06.517Z,6.57
2022-12-08T08:36:35.217Z,7.53
2022-12-08T08:39:03.630Z,5.88
2022-12-08T08:41:33.468Z,6.00
2022-12-08T08:44:01.694Z,5.88
2022-12-08T08:46:30.018Z,6.00
2022-12-08T08:48:58.832Z,5.68
2022-12-08T08:51:27.259Z,6.72
2022-12-08T08:53:55.554Z,5.32
2022-12-08T08:56:24.450Z,5.80
2022-12-08T08:58:55.138Z,5.45
2022-12-08T09:01:25.652Z,6.28
2022-12-08T09:03:55.018Z,4.07
2022-12-08T09:06:23.595Z,5.22
2022-12-08T09:08:52.239Z,5.22
2022-12-08T09:11:20.608Z,5.00
2022-12-08T09:13:50.117Z,5.18
2022-12-08T09:16:20.371Z,5.35
2022-12-08T09:18:49.465Z,5.18
2022-12-08T09:21:22.357Z,4.60
2022-12-08T09:23:51.172Z,5.28
2022-12-08T09:26:22.376Z,5.45
2022-12-08T09:28:51.304Z,4.95
2022-12-08T09:31:22.767Z,5.28
2022-12-08T09:33:52.766Z,4.75
2022-12-08T09:36:21.697Z,5.50
2022-12-08T09:38:51.103Z,5.45
2022-12-08T09:41:30.869Z,5.50
2022-12-08T09:44:24.596Z,5.85
2022-12-08T09:46:55.536Z,5.60
2022-12-08T09:51:55.529Z,6.32
2022-12-08T09:54:33.131Z,6.05
2022-12-08T09:57:07.080Z,5.10
2022-12-08T09:59:36.856Z,5.00
2022-12-08T10:02:22.353Z,5.38
2022-12-08T10:04:50.919Z,4.93
2022-12-08T10:07:31.367Z,4.60
2022-12-08T10:10:07.625Z,5.88
2022-12-08T10:12:44.278Z,6.20
2022-12-08T10:15:42.674Z,5.47
2022-12-08T10:18:18.841Z,4.78
2022-12-08T10:20:50.825Z,6.55
2022-12-08T10:23:32.602Z,5.32
2022-12-08T10:26:06.400Z,4.72
2022-12-08T10:28:39.962Z,5.13
2022-12-08T10:31:19.638Z,5.03
2022-12-08T10:33:59.632Z,5.43
2022-12-08T10:36:47.779Z,5.38
2022-12-08T10:39:32.915Z,5.85
2022-12-08T10:42:20.743Z,5.07
2022-12-08T10:45:00.755Z,5.05
2022-12-08T10:47:30.829Z,4.72
2022-12-08T10:50:20.661Z,4.10
2022-12-08T10:52:58.284Z,5.60
2022-12-08T10:55:27.108Z,5.40
2022-12-08T10:57:55.346Z,5.35
2022-12-08T11:00:28.340Z,5.43
2022-12-08T11:03:00.556Z,4.93
2022-12-08T11:05:35.292Z,4.80
2022-12-08T11:08:05.887Z,4.68
2022-12-08T11:10:38.083Z,4.70
2022-12-08T11:13:14.496Z,5.28
2022-12-08T11:15:42.806Z,5.60
2022-12-08T11:18:28.199Z,4.50
2022-12-08T11:21:08.767Z,5.00
2022-12-08T11:23:38.332Z,4.85
2022-12-08T11:26:20.415Z,4.18
2022-12-08T11:28:48.618Z,4.68
2022-12-08T11:31:28.997Z,5.10
2022-12-08T11:33:58.139Z,4.72
2022-12-08T11:36:31.127Z,4.07
2022-12-08T11:39:02.068Z,4.32
2022-12-08T11:41:37.311Z,4.63
2022-12-08T11:44:14.379Z,4.70
2022-12-08T11:46:50.011Z,4.30
2022-12-08T11:49:19.224Z,4.90
2022-12-08T11:51:55.642Z,4.93
2022-12-08T11:54:28.612Z,4.05
2022-12-08T11:56:59.181Z,4.28
2022-12-08T11:59:32.743Z,4.32
2022-12-08T12:02:03.260Z,3.92
2022-12-08T12:04:38.240Z,4.25
2022-12-08T12:07:57.065Z,4.38
2022-12-08T12:10:44.039Z,4.15
2022-12-08T12:13:37.122Z,4.38
2022-12-08T12:16:50.223Z,4.20
2022-12-08T12:19:20.236Z,4.32
2022-12-08T12:21:52.876Z,4.43
2022-12-08T12:24:30.414Z,4.50
2022-12-08T12:27:07.739Z,4.10
2022-12-08T12:29:38.697Z,4.32
2022-12-08T12:32:10.401Z,4.82
2022-12-08T12:34:48.516Z,4.55
2022-12-08T12:37:21.106Z,3.92
2022-12-08T12:40:00.981Z,4.95
2022-12-08T12:42:44.011Z,4.55
2022-12-08T12:45:29.103Z,4.32
2022-12-08T12:48:24.312Z,3.85
2022-12-08T12:50:55.124Z,4.20
2022-12-08T12:53:53.502Z,4.78
2022-12-08T12:56:59.088Z,4.40
2022-12-08T12:59:53.265Z,4.32
2022-12-08T13:02:29.210Z,4.47
2022-12-08T13:05:03.718Z,4.55
2022-12-08T13:07:36.181Z,4.50
2022-12-08T13:10:18.130Z,4.97
2022-12-08T13:13:08.352Z,4.90
2022-12-08T13:15:39.700Z,4.05
2022-12-08T13:18:19.804Z,4.18
2022-12-08T13:20:53.430Z,4.43
2022-12-08T13:23:43.639Z,3.95
2022-12-08T13:26:21.239Z,3.88
2022-12-08T13:29:23.741Z,5.25
2022-12-08T13:31:55.157Z,4.38
2022-12-08T13:34:33.577Z,3.80
2022-12-08T13:37:22.587Z,4.15
2022-12-08T13:39:56.329Z,4.68
2022-12-08T13:42:37.030Z,4.18
2022-12-08T13:45:27.874Z,4.18
2022-12-08T13:48:30.161Z,5.15
2022-12-08T13:53:22.306Z,4.75
2022-12-08T13:57:11.981Z,4.75
2022-12-08T13:59:46.027Z,4.32
2022-12-08T14:02:24.234Z,4.63
2022-12-08T14:07:42.473Z,4.75
2022-12-08T14:10:18.205Z,4.60
2022-12-08T14:12:53.795Z,5.15
2022-12-08T14:15:26.351Z,4.57
2022-12-08T14:17:58.599Z,4.80
2022-12-08T14:20:30.271Z,5.45
2022-12-08T14:22:59.962Z,5.28
2022-12-08T14:25:29.539Z,5.32
2022-12-08T14:28:02.153Z,5.57
2022-12-08T14:30:34.049Z,5.22
2022-12-08T14:33:11.740Z,5.50
2022-12-08T14:35:40.606Z,5.13
2022-12-08T14:38:15.430Z,5.22
2022-12-08T14:40:45.505Z,5.78
2022-12-08T14:43:20.066Z,5.53
2022-12-08T14:45:54.564Z,4.75
2022-12-08T14:48:26.879Z,5.28
2022-12-08T14:51:06.124Z,5.22
2022-12-08T14:53:40.677Z,5.53
2022-12-08T14:56:16.622Z,4.88
2022-12-08T14:58:45.441Z,5.07
2022-12-08T15:01:18.030Z,4.82
2022-12-08T15:03:51.482Z,4.50
2022-12-08T15:06:23.251Z,5.15
2022-12-08T15:08:59.696Z,5.03
2022-12-08T15:11:37.458Z,4.82
2022-12-08T15:14:05.771Z,5.45
2022-12-08T15:16:42.583Z,5.10
2022-12-08T15:19:27.661Z,5.72
2022-12-08T15:24:24.159Z,4.50
2022-12-08T15:26:53.561Z,5.03
2022-12-08T15:29:24.804Z,5.00
2022-12-08T15:31:55.538Z,5.63
2022-12-08T15:34:24.412Z,5.70
2022-12-08T15:36:56.316Z,5.38
2022-12-08T15:39:34.525Z,5.70
2022-12-08T15:42:04.264Z,5.20
2022-12-08T15:44:32.999Z,5.97
2022-12-08T15:47:01.734Z,6.00
2022-12-08T15:49:30.226Z,5.90
2022-12-08T15:52:10.812Z,5.80
2022-12-08T15:57:43.818Z,5.38
2022-12-08T16:00:52.421Z,6.13
2022-12-08T16:04:13.861Z,5.47
2022-12-08T16:09:20.987Z,5.10
2022-12-08T16:12:09.959Z,4.95
2022-12-08T16:17:28.821Z,4.85
2022-12-08T16:19:57.370Z,5.22
2022-12-08T16:25:19.961Z,4.68
2022-12-08T16:28:08.240Z,5.47
2022-12-08T16:30:37.104Z,5.20
2022-12-08T16:33:06.274Z,4.88
2022-12-08T16:35:34.758Z,4.75
2022-12-08T16:38:03.016Z,5.38
2022-12-08T16:40:31.748Z,4.18
2022-12-08T16:43:00.363Z,5.00
2022-12-08T16:45:31.520Z,4.97
2022-12-08T16:48:01.804Z,5.18
2022-12-08T16:50:32.813Z,5.95
2022-12-08T16:55:31.389Z,6.80
2022-12-08T16:58:01.218Z,5.30
2022-12-08T17:00:36.661Z,4.68
2022-12-08T17:03:06.150Z,4.93
2022-12-08T17:05:34.718Z,4.93
2022-12-08T17:08:03.123Z,4.45
2022-12-08T17:10:34.342Z,4.65
2022-12-08T17:13:04.124Z,4.80
2022-12-08T17:15:32.441Z,4.85
2022-12-08T17:18:00.709Z,4.75
2022-12-08T17:20:30.015Z,5.07
2022-12-08T17:22:59.470Z,6.47
2022-12-08T17:25:28.235Z,5.60
2022-12-08T17:27:57.112Z,6.45
2022-12-08T17:30:26.650Z,5.78
2022-12-08T17:32:54.886Z,5.15
2022-12-08T17:35:23.464Z,4.68
2022-12-08T17:37:51.763Z,4.65
2022-12-08T17:40:19.956Z,5.53
2022-12-08T17:42:48.122Z,4.82
2022-12-08T17:45:16.359Z,4.68
2022-12-08T17:47:46.043Z,4.63
2022-12-08T17:50:14.410Z,4.72
2022-12-08T17:52:42.600Z,4.93
2022-12-08T17:55:11.628Z,4.82
2022-12-08T17:57:39.936Z,4.63
2022-12-08T18:00:11.287Z,4.47
2022-12-08T18:02:39.725Z,5.10
2022-12-08T18:05:10.400Z,5.22
2022-12-08T18:07:38.895Z,5.18
2022-12-08T18:10:08.650Z,4.85
2022-12-08T18:12:37.109Z,4.68
2022-12-08T18:15:07.313Z,5.10
2022-12-08T18:17:35.608Z,5.43
2022-12-08T18:20:04.370Z,5.47
2022-12-08T18:22:34.194Z,5.10
2022-12-08T18:25:02.655Z,5.15
2022-12-08T18:27:30.838Z,4.90
2022-12-08T18:30:00.489Z,4.57
2022-12-08T18:32:28.760Z,5.45
2022-12-08T18:34:56.960Z,5.85
2022-12-08T18:37:25.269Z,4.60
2022-12-08T18:39:54.873Z,5.80
2022-12-08T18:42:27.963Z,5.70
2022-12-08T18:45:01.655Z,5.43
2022-12-08T18:47:30.173Z,5.90
2022-12-08T18:49:58.911Z,6.18
2022-12-08T18:52:32.248Z,6.30
2022-12-08T18:55:07.120Z,6.80
2022-12-08T18:57:38.403Z,5.40
2022-12-08T19:00:09.537Z,5.03
2022-12-08T19:02:39.607Z,5.68
2022-12-08T19:05:10.484Z,5.68
2022-12-08T19:07:39.275Z,5.60
2022-12-08T19:10:10.574Z,5.25
2022-12-08T19:12:38.881Z,5.47
2022-12-08T19:15:08.657Z,5.68
2022-12-08T19:17:36.989Z,5.00
2022-12-08T19:20:07.750Z,5.13
2022-12-08T19:22:36.111Z,5.35
2022-12-08T19:25:05.338Z,5.47
2022-12-08T19:27:35.207Z,5.38
2022-12-08T19:30:03.750Z,5.32
2022-12-08T19:32:32.177Z,4.90
2022-12-08T19:35:00.370Z,5.57
2022-12-08T19:37:28.553Z,5.03
2022-12-08T19:40:14.599Z,4.97
2022-12-08T19:43:01.940Z,7.35
2022-12-08T19:45:30.470Z,7.95
2022-12-08T19:47:58.735Z,6.97
2022-12-08T19:50:39.064Z,6.75
2022-12-08T19:53:09.577Z,5.80
2022-12-08T19:55:39.030Z,6.38
2022-12-08T19:58:12.257Z,6.40
2022-12-08T20:00:41.814Z,6.07
2022-12-08T20:03:12.286Z,6.68
2022-12-08T20:05:43.081Z,5.80
2022-12-08T20:08:12.106Z,5.68
2022-12-08T20:10:43.493Z,5.40
2022-12-08T20:13:31.127Z,6.45
2022-12-08T20:15:59.800Z,5.85
2022-12-08T20:18:29.476Z,6.13
2022-12-08T20:20:58.188Z,5.07
2022-12-08T20:23:26.389Z,5.68
2022-12-08T20:25:54.633Z,5.35
2022-12-08T20:28:24.249Z,6.18
2022-12-08T20:30:53.036Z,6.43
2022-12-08T20:33:21.566Z,8.73
2022-12-08T20:35:59.614Z,5.95
2022-12-08T20:38:28.078Z,6.03
2022-12-08T20:40:56.422Z,5.78
2022-12-08T20:43:26.412Z,4.88
2022-12-08T20:45:54.619Z,5.45
2022-12-08T20:48:22.984Z,5.22
2022-12-08T20:50:52.327Z,5.35
2022-12-08T20:53:21.213Z,5.20
2022-12-08T20:55:49.478Z,4.88
2022-12-08T20:58:17.792Z,4.55
2022-12-08T21:00:47.513Z,5.05
2022-12-08T21:03:17.569Z,4.88
2022-12-08T21:05:50.696Z,8.43
2022-12-08T21:08:20.406Z,8.50
2022-12-08T21:10:55.422Z,8.02
2022-12-08T21:13:23.886Z,8.40
2022-12-08T21:15:53.716Z,8.00
2022-12-08T21:18:22.412Z,6.80
2022-12-08T21:20:51.561Z,6.18
2022-12-08T21:23:20.248Z,6.05
2022-12-08T21:25:51.733Z,6.68
2022-12-08T21:28:20.073Z,6.55
2022-12-08T21:30:48.424Z,6.00
2022-12-08T21:33:18.793Z,6.00
2022-12-08T21:35:47.320Z,5.97
2022-12-08T21:38:15.807Z,5.63
2022-12-08T21:40:44.314Z,5.97
2022-12-08T21:43:14.915Z,6.13
2022-12-08T21:45:43.333Z,5.72
2022-12-08T21:48:12.188Z,5.82
2022-12-08T21:50:42.074Z,5.63
2022-12-08T21:53:10.856Z,6.30
2022-12-08T21:55:39.848Z,6.35
2022-12-08T21:58:08.170Z,5.20
2022-12-08T22:00:36.642Z,6.28
2022-12-08T22:03:05.650Z,6.18
2022-12-08T22:05:37.255Z,5.60
2022-12-08T22:08:07.331Z,5.63
2022-12-08T22:10:35.697Z,5.50
2022-12-08T22:13:04.048Z,6.10
2022-12-08T22:15:33.071Z,6.43
2022-12-08T22:18:01.756Z,5.97
2022-12-08T22:20:30.185Z,7.18
2022-12-08T22:22:58.364Z,7.35
2022-12-08T22:25:28.071Z,6.65
2022-12-08T22:27:56.278Z,5.65
2022-12-08T22:30:24.550Z,6.25
2022-12-08T22:32:52.996Z,6.72
2022-12-08T22:35:21.305Z,7.03
2022-12-08T22:37:49.941Z,6.18
2022-12-08T22:40:18.354Z,6.15
2022-12-08T22:42:48.153Z,6.97
2022-12-08T22:45:16.639Z,6.70
2022-12-08T22:47:44.913Z,7.43
2022-12-08T22:50:13.755Z,6.38
2022-12-08T22:52:42.107Z,6.82
2022-12-08T22:55:11.259Z,6.65
2022-12-08T22:57:39.424Z,6.70
2022-12-08T23:00:12.771Z,7.28
2022-12-08T23:02:41.207Z,6.70
2022-12-08T23:05:10.759Z,6.90
2022-12-08T23:07:40.782Z,7.93
2022-12-08T23:10:11.125Z,6.67
2022-12-08T23:12:40.284Z,6.78
2022-12-08T23:15:11.120Z,6.55
2022-12-08T23:17:39.443Z,7.15
2022-12-08T23:20:09.909Z,6.63
2022-12-08T23:22:38.844Z,6.40
2022-12-08T23:25:08.672Z,6.35
2022-12-08T23:27:37.832Z,6.10
2022-12-08T23:30:07.997Z,5.88
2022-12-08T23:32:38.139Z,6.60
2022-12-08T23:35:08.529Z,5.70
2022-12-08T23:37:37.121Z,6.57
2022-12-08T23:40:06.943Z,7.30
2022-12-08T23:42:35.663Z,5.43
2022-12-08T23:45:04.530Z,6.70
2022-12-08T23:47:32.827Z,7.20
2022-12-08T23:50:02.605Z,7.00
2022-12-08T23:52:30.941Z,6.65
2022-12-08T23:54:59.106Z,7.03
2022-12-08T23:57:27.325Z,6.97
2022-12-08T23:59:55.447Z,6.70
